createdAt,value
2023-06-28T00:01:47.108Z,4.28
2023-06-28T00:04:16.382Z,4.30
2023-06-28T00:06:44.834Z,3.90
2023-06-28T00:09:13.210Z,3.45
2023-06-28T00:11:41.549Z,3.75
2023-06-28T00:14:09.980Z,4.15
2023-06-28T00:16:39.724Z,3.70
2023-06-28T00:19:08.086Z,4.22
2023-06-28T00:21:36.507Z,3.70
2023-06-28T00:24:04.989Z,3.50
2023-06-28T00:26:33.320Z,3.45
2023-06-28T00:29:01.637Z,3.92
2023-06-28T00:31:30.140Z,3.80
2023-06-28T00:33:59.907Z,3.30
2023-06-28T00:36:28.243Z,4.28
2023-06-28T00:38:56.615Z,4.07
2023-06-28T00:41:24.916Z,3.42
2023-06-28T00:43:53.320Z,3.95
2023-06-28T00:46:21.811Z,3.30
2023-06-28T00:48:50.816Z,3.65
2023-06-28T00:51:21.230Z,3.50
2023-06-28T00:53:49.590Z,3.10
2023-06-28T00:56:18.347Z,3.33
2023-06-28T00:58:46.799Z,3.45
2023-06-28T01:01:15.089Z,3.40
2023-06-28T01:03:43.819Z,4.00
2023-06-28T01:06:14.076Z,3.50
2023-06-28T01:08:44.651Z,3.35
2023-06-28T01:11:13.585Z,3.33
2023-06-28T01:13:43.274Z,3.40
2023-06-28T01:16:11.785Z,3.90
2023-06-28T01:18:40.730Z,3.70
2023-06-28T01:21:13.068Z,3.15
2023-06-28T01:23:43.272Z,3.35
2023-06-28T01:26:12.603Z,3.35
2023-06-28T01:28:41.134Z,3.70
2023-06-28T01:31:09.903Z,3.63
2023-06-28T01:33:39.481Z,4.20
2023-06-28T01:36:09.209Z,3.45
2023-06-28T01:38:40.503Z,4.22
2023-06-28T01:41:11.429Z,3.70
2023-06-28T01:43:41.367Z,3.03
2023-06-28T01:46:09.896Z,3.13
2023-06-28T01:48:38.490Z,4.15
2023-06-28T01:51:06.949Z,3.47
2023-06-28T01:53:35.323Z,3.88
2023-06-28T01:56:03.699Z,3.92
2023-06-28T01:58:33.636Z,4.13
2023-06-28T02:01:02.078Z,3.88
2023-06-28T02:03:30.556Z,2.58
2023-06-28T02:05:58.916Z,3.70
2023-06-28T02:08:27.442Z,2.97
2023-06-28T02:10:55.819Z,3.85
2023-06-28T02:13:24.224Z,3.53
2023-06-28T02:15:53.963Z,3.47
2023-06-28T02:18:26.263Z,3.05
2023-06-28T02:20:54.617Z,3.22
2023-06-28T02:23:23.273Z,3.13
2023-06-28T02:25:51.659Z,3.08
2023-06-28T02:28:20.843Z,2.70
2023-06-28T02:30:49.561Z,2.47
2023-06-28T02:33:20.021Z,2.03
2023-06-28T02:35:48.366Z,2.33
2023-06-28T02:38:16.671Z,1.98
2023-06-28T02:40:45.168Z,2.50
2023-06-28T02:43:13.704Z,2.38
2023-06-28T02:45:42.062Z,2.10
2023-06-28T02:48:10.382Z,2.25
2023-06-28T02:50:40.489Z,2.20
2023-06-28T02:53:09.046Z,2.08
2023-06-28T02:55:37.581Z,1.30
2023-06-28T02:58:05.921Z,1.23
2023-06-28T03:00:34.364Z,1.02
2023-06-28T03:03:05.244Z,1.15
2023-06-28T03:05:34.145Z,1.20
2023-06-28T03:08:04.111Z,1.42
2023-06-28T03:10:32.576Z,1.50
2023-06-28T03:15:29.076Z,1.60
2023-06-28T03:25:24.591Z,0.80
2023-06-28T03:27:53.126Z,1.20
2023-06-28T03:32:49.636Z,0.98
2023-06-28T03:35:18.280Z,1.02
2023-06-28T03:37:52.090Z,0.90
2023-06-28T03:40:20.685Z,0.53
2023-06-28T03:42:50.502Z,0.77
2023-06-28T03:45:19.201Z,0.60
2023-06-28T03:47:49.139Z,0.80
2023-06-28T03:50:17.641Z,0.67
2023-06-28T03:52:45.976Z,0.70
2023-06-28T03:55:14.503Z,0.67
2023-06-28T04:00:13.813Z,0.70
2023-06-28T04:02:43.094Z,0.60
2023-06-28T04:05:12.417Z,0.90
2023-06-28T04:07:40.877Z,0.70
2023-06-28T04:10:10.558Z,0.80
2023-06-28T04:12:38.895Z,0.80
2023-06-28T04:15:08.969Z,0.80
2023-06-28T04:17:38.818Z,0.70
2023-06-28T04:20:09.599Z,0.70
2023-06-28T04:22:37.943Z,0.57
2023-06-28T04:25:07.127Z,0.83
2023-06-28T04:27:35.525Z,0.83
2023-06-28T04:30:03.972Z,0.60
2023-06-28T04:32:32.772Z,0.70
2023-06-28T04:35:02.803Z,0.90
2023-06-28T04:37:33.038Z,0.50
2023-06-28T04:40:04.684Z,0.70
2023-06-28T04:42:33.175Z,0.77
2023-06-28T04:45:02.442Z,0.70
2023-06-28T04:47:30.962Z,0.70
2023-06-28T04:49:59.720Z,0.80
2023-06-28T04:52:29.553Z,0.50
2023-06-28T04:55:00.278Z,0.50
2023-06-28T04:57:28.971Z,0.57
2023-06-28T04:59:58.781Z,0.40
2023-06-28T05:02:27.629Z,0.70
2023-06-28T05:04:56.142Z,0.50
2023-06-28T05:07:24.496Z,0.83
2023-06-28T05:09:55.659Z,0.60
2023-06-28T05:12:24.104Z,0.50
2023-06-28T05:14:52.676Z,0.80
2023-06-28T05:17:21.098Z,0.63
2023-06-28T05:19:49.437Z,0.80
2023-06-28T05:22:17.951Z,0.70
2023-06-28T05:24:46.238Z,0.70
2023-06-28T05:27:16.152Z,0.80
2023-06-28T05:29:44.552Z,0.83
2023-06-28T05:32:15.231Z,0.67
2023-06-28T05:34:43.584Z,0.90
2023-06-28T05:37:11.926Z,0.53
2023-06-28T05:39:40.328Z,0.73
2023-06-28T05:42:08.894Z,0.67
2023-06-28T05:44:38.675Z,0.80
2023-06-28T05:47:07.462Z,0.90
2023-06-28T05:49:39.177Z,0.68
2023-06-28T05:52:08.774Z,0.63
2023-06-28T05:54:37.235Z,0.77
2023-06-28T05:57:06.305Z,0.50
2023-06-28T05:59:34.721Z,0.90
2023-06-28T06:02:04.635Z,0.90
2023-06-28T06:04:33.060Z,0.70
2023-06-28T06:07:01.500Z,0.80
2023-06-28T06:09:31.486Z,0.70
2023-06-28T06:11:59.986Z,0.70
2023-06-28T06:14:28.283Z,0.60
2023-06-28T06:16:56.812Z,0.60
2023-06-28T06:19:26.600Z,0.70
2023-06-28T06:21:55.288Z,0.50
2023-06-28T06:24:25.384Z,0.65
2023-06-28T06:26:55.189Z,0.60
2023-06-28T06:29:23.594Z,0.73
2023-06-28T06:31:52.025Z,1.10
2023-06-28T06:34:20.389Z,0.63
2023-06-28T06:36:50.342Z,0.70
2023-06-28T06:39:18.688Z,0.57
2023-06-28T06:41:47.151Z,0.60
2023-06-28T06:44:15.572Z,0.75
2023-06-28T06:46:43.950Z,0.68
2023-06-28T06:49:12.286Z,0.50
2023-06-28T06:51:40.742Z,0.75
2023-06-28T06:54:11.275Z,0.75
2023-06-28T06:56:39.649Z,0.82
2023-06-28T06:59:08.119Z,1.20
2023-06-28T07:01:36.988Z,0.80
2023-06-28T07:04:05.543Z,0.75
2023-06-28T07:06:33.942Z,0.73
2023-06-28T07:09:02.305Z,0.80
2023-06-28T07:11:32.107Z,0.60
2023-06-28T07:14:00.465Z,0.77
2023-06-28T07:16:28.771Z,0.63
2023-06-28T07:18:57.274Z,0.60
2023-06-28T07:21:25.829Z,1.00
2023-06-28T07:23:55.569Z,0.73
2023-06-28T07:26:24.088Z,1.05
2023-06-28T07:28:53.976Z,0.98
2023-06-28T07:31:22.449Z,0.50
2023-06-28T07:33:50.801Z,0.50
2023-06-28T07:36:19.484Z,0.75
2023-06-28T07:38:48.288Z,0.40
2023-06-28T07:41:16.653Z,0.55
2023-06-28T07:43:45.064Z,0.52
2023-06-28T07:46:14.875Z,0.57
2023-06-28T07:48:43.257Z,0.40
2023-06-28T07:51:11.701Z,0.50
2023-06-28T07:53:40.572Z,0.43
2023-06-28T07:56:08.980Z,0.35
2023-06-28T07:58:38.738Z,0.47
2023-06-28T08:01:07.130Z,0.38
2023-06-28T08:03:37.003Z,0.30
2023-06-28T08:06:05.875Z,0.25
2023-06-28T08:08:34.296Z,0.40
2023-06-28T08:11:02.696Z,0.40
2023-06-28T08:13:31.058Z,0.43
2023-06-28T08:15:59.385Z,0.30
2023-06-28T08:18:27.882Z,0.45
2023-06-28T08:20:57.768Z,0.40
2023-06-28T08:23:26.098Z,0.50
2023-06-28T08:25:54.589Z,0.30
2023-06-28T08:28:23.581Z,0.43
2023-06-28T08:30:51.978Z,0.30
2023-06-28T08:33:20.369Z,0.30
2023-06-28T08:35:48.944Z,0.30
2023-06-28T08:38:18.926Z,0.40
2023-06-28T08:40:47.486Z,0.30
2023-06-28T08:43:18.921Z,0.30
2023-06-28T08:45:47.548Z,0.30
2023-06-28T08:48:28.505Z,0.40
2023-06-28T08:51:00.475Z,0.40
2023-06-28T08:53:31.467Z,0.38
2023-06-28T08:56:02.241Z,0.45
2023-06-28T08:58:32.173Z,0.35
2023-06-28T09:01:01.867Z,0.40
2023-06-28T09:03:31.060Z,0.40
2023-06-28T09:06:00.777Z,0.40
2023-06-28T09:08:31.026Z,0.40
2023-06-28T09:11:01.865Z,0.40
2023-06-28T09:13:30.685Z,0.50
2023-06-28T09:15:59.621Z,0.38
2023-06-28T09:18:27.983Z,0.40
2023-06-28T09:20:57.059Z,0.30
2023-06-28T09:23:26.599Z,0.30
2023-06-28T09:25:56.715Z,0.40
2023-06-28T09:28:26.064Z,0.30
2023-06-28T09:30:55.198Z,0.40
2023-06-28T09:33:24.147Z,0.50
2023-06-28T09:35:56.227Z,0.30
2023-06-28T09:38:25.175Z,0.47
2023-06-28T09:40:57.795Z,0.40
2023-06-28T09:43:26.579Z,0.40
2023-06-28T09:45:56.331Z,0.40
2023-06-28T09:48:26.101Z,0.40
2023-06-28T09:50:54.861Z,0.40
2023-06-28T09:53:24.004Z,0.40
2023-06-28T09:55:53.671Z,0.40
2023-06-28T09:58:23.957Z,0.40
2023-06-28T10:00:52.868Z,0.35
2023-06-28T10:03:27.050Z,0.30
2023-06-28T10:05:58.288Z,0.30
2023-06-28T10:08:28.004Z,0.30
2023-06-28T10:10:57.167Z,0.30
2023-06-28T10:13:29.125Z,0.30
2023-06-28T10:16:04.256Z,0.43
2023-06-28T10:18:33.504Z,0.50
2023-06-28T10:21:03.261Z,0.40
2023-06-28T10:23:35.034Z,0.40
2023-06-28T10:26:04.160Z,0.50
2023-06-28T10:28:35.794Z,0.30
2023-06-28T10:31:06.078Z,0.40
2023-06-28T10:33:37.873Z,0.30
2023-06-28T10:36:07.156Z,0.40
2023-06-28T10:38:38.402Z,0.40
2023-06-28T10:41:07.356Z,0.50
2023-06-28T10:43:38.126Z,0.35
2023-06-28T10:46:23.725Z,0.40
2023-06-28T10:48:55.189Z,0.30
2023-06-28T10:51:24.432Z,0.30
2023-06-28T10:54:07.389Z,0.40
2023-06-28T10:56:38.781Z,0.40
2023-06-28T10:59:09.368Z,0.45
2023-06-28T11:01:39.127Z,0.35
2023-06-28T11:04:15.326Z,0.50
2023-06-28T11:06:43.800Z,0.38
2023-06-28T11:09:16.157Z,0.40
2023-06-28T11:11:56.232Z,0.40
2023-06-28T11:14:28.161Z,0.30
2023-06-28T11:17:03.006Z,0.38
2023-06-28T11:19:31.766Z,0.30
2023-06-28T11:22:01.146Z,0.40
2023-06-28T11:24:47.430Z,0.40
2023-06-28T11:27:18.387Z,0.50
2023-06-28T11:29:59.450Z,0.32
2023-06-28T11:32:29.522Z,0.47
2023-06-28T11:34:59.899Z,0.45
2023-06-28T11:37:29.935Z,0.40
2023-06-28T11:40:00.668Z,0.40
2023-06-28T11:42:29.190Z,0.40
2023-06-28T11:44:58.951Z,0.40
2023-06-28T11:47:28.938Z,0.40
2023-06-28T11:49:57.919Z,0.30
2023-06-28T11:52:26.987Z,0.50
2023-06-28T11:54:55.434Z,0.40
2023-06-28T11:57:23.862Z,0.40
2023-06-28T11:59:52.879Z,0.40
2023-06-28T12:02:22.798Z,0.40
2023-06-28T12:05:00.201Z,0.40
2023-06-28T12:07:29.099Z,0.40
2023-06-28T12:09:58.853Z,0.40
2023-06-28T12:12:35.204Z,0.50
2023-06-28T12:15:04.109Z,0.50
2023-06-28T12:17:41.196Z,0.40
2023-06-28T12:20:10.800Z,0.40
2023-06-28T12:22:42.585Z,0.40
2023-06-28T12:25:12.069Z,0.57
2023-06-28T12:27:42.500Z,0.40
2023-06-28T12:30:12.773Z,0.50
2023-06-28T12:32:47.910Z,0.50
2023-06-28T12:35:23.882Z,0.38
2023-06-28T12:37:55.597Z,0.50
2023-06-28T12:40:25.646Z,0.40
2023-06-28T12:43:16.906Z,0.60
2023-06-28T12:45:48.069Z,0.47
2023-06-28T12:48:18.660Z,0.47
2023-06-28T12:50:47.739Z,0.40
2023-06-28T12:53:16.378Z,0.50
2023-06-28T12:55:45.342Z,0.50
2023-06-28T12:58:14.190Z,0.40
2023-06-28T13:00:46.691Z,0.40
2023-06-28T13:03:15.706Z,0.40
2023-06-28T13:05:45.615Z,0.40
2023-06-28T13:08:14.189Z,0.40
2023-06-28T13:10:43.055Z,0.40
2023-06-28T13:13:11.806Z,0.52
2023-06-28T13:15:40.604Z,0.40
2023-06-28T13:18:09.247Z,0.43
2023-06-28T13:20:37.756Z,0.50
2023-06-28T13:23:07.679Z,0.40
2023-06-28T13:25:36.196Z,0.45
2023-06-28T13:28:05.188Z,0.40
2023-06-28T13:30:34.555Z,0.40
2023-06-28T13:33:03.095Z,0.60
2023-06-28T13:35:31.580Z,0.50
2023-06-28T13:37:59.937Z,0.57
2023-06-28T13:40:29.875Z,0.40
2023-06-28T13:42:58.249Z,0.43
2023-06-28T13:45:26.646Z,0.50
2023-06-28T13:47:55.022Z,0.50
2023-06-28T13:50:23.592Z,0.60
2023-06-28T13:52:52.092Z,0.47
2023-06-28T13:55:20.527Z,0.40
2023-06-28T13:57:50.402Z,0.70
2023-06-28T14:00:19.095Z,0.50
2023-06-28T14:02:47.715Z,0.60
2023-06-28T14:05:17.992Z,0.65
2023-06-28T14:07:47.745Z,0.65
2023-06-28T14:10:16.143Z,0.60
2023-06-28T14:12:45.270Z,0.50
2023-06-28T14:15:15.104Z,0.65
2023-06-28T14:17:43.527Z,0.70
2023-06-28T14:20:12.944Z,0.40
2023-06-28T14:22:41.293Z,0.70
2023-06-28T14:25:10.499Z,0.70
2023-06-28T14:27:38.774Z,0.57
2023-06-28T14:30:08.414Z,0.60
2023-06-28T14:32:38.193Z,0.50
2023-06-28T14:35:07.162Z,0.70
2023-06-28T14:37:35.729Z,0.60
2023-06-28T14:40:04.566Z,0.57
2023-06-28T14:42:33.079Z,0.60
2023-06-28T14:45:01.597Z,0.60
2023-06-28T14:47:29.969Z,0.50
2023-06-28T14:49:59.961Z,0.50
2023-06-28T14:52:28.319Z,0.60
2023-06-28T14:54:56.784Z,0.60
2023-06-28T14:57:25.095Z,0.60
2023-06-28T14:59:53.397Z,0.50
2023-06-28T15:02:21.669Z,0.80
2023-06-28T15:04:49.974Z,0.47
2023-06-28T15:07:19.857Z,0.60
2023-06-28T15:09:48.278Z,0.70
2023-06-28T15:12:16.705Z,0.60
2023-06-28T15:14:45.141Z,0.50
2023-06-28T15:17:13.523Z,0.80
2023-06-28T15:19:41.963Z,0.68
2023-06-28T15:22:10.312Z,0.73
2023-06-28T15:24:40.092Z,0.70
2023-06-28T15:27:09.506Z,0.63
2023-06-28T15:29:37.898Z,0.77
2023-06-28T15:32:07.259Z,0.60
2023-06-28T15:34:35.654Z,0.70
2023-06-28T15:37:03.969Z,0.70
2023-06-28T15:39:32.480Z,0.60
2023-06-28T15:42:02.761Z,1.00
2023-06-28T15:44:31.106Z,0.90
2023-06-28T15:46:59.532Z,0.63
2023-06-28T15:49:29.199Z,0.80
2023-06-28T15:51:57.861Z,0.73
2023-06-28T15:54:26.181Z,0.70
2023-06-28T15:56:54.921Z,0.80
2023-06-28T15:59:24.740Z,0.80
2023-06-28T16:01:53.269Z,0.80
2023-06-28T16:04:21.699Z,0.90
2023-06-28T16:06:50.049Z,0.85
2023-06-28T16:09:18.417Z,0.70
2023-06-28T16:11:46.800Z,0.60
2023-06-28T16:14:15.191Z,0.80
2023-06-28T16:16:45.316Z,0.80
2023-06-28T16:19:13.984Z,0.63
2023-06-28T16:21:42.275Z,0.70
2023-06-28T16:24:10.732Z,0.60
2023-06-28T16:26:40.002Z,0.60
2023-06-28T16:29:08.377Z,0.77
2023-06-28T16:31:36.864Z,0.70
2023-06-28T16:34:06.800Z,0.60
2023-06-28T16:36:35.158Z,0.60
2023-06-28T16:39:04.068Z,0.70
2023-06-28T16:41:32.877Z,0.60
2023-06-28T16:44:01.268Z,0.68
2023-06-28T16:46:29.619Z,0.70
2023-06-28T16:48:57.976Z,0.70
2023-06-28T16:51:27.784Z,0.52
2023-06-28T16:53:57.091Z,0.77
2023-06-28T16:56:25.960Z,0.70
2023-06-28T16:58:54.389Z,0.63
2023-06-28T17:01:22.915Z,0.60
2023-06-28T17:03:51.638Z,0.73
2023-06-28T17:06:20.243Z,0.63
2023-06-28T17:08:50.085Z,0.65
2023-06-28T17:11:18.740Z,0.60
2023-06-28T17:13:47.707Z,0.80
2023-06-28T17:16:16.236Z,0.68
2023-06-28T17:18:44.841Z,0.90
2023-06-28T17:21:13.270Z,0.80
2023-06-28T17:23:42.426Z,0.90
2023-06-28T17:26:12.733Z,0.63
2023-06-28T17:28:41.738Z,0.63
2023-06-28T17:31:10.140Z,0.80
2023-06-28T17:33:39.369Z,0.70
2023-06-28T17:36:09.707Z,0.80
2023-06-28T17:38:39.312Z,0.60
2023-06-28T17:41:12.630Z,0.90
2023-06-28T17:43:43.762Z,0.82
2023-06-28T17:46:12.659Z,0.80
2023-06-28T17:48:42.178Z,0.90
2023-06-28T17:51:11.939Z,0.55
2023-06-28T17:53:41.487Z,0.55
2023-06-28T17:56:11.727Z,0.65
2023-06-28T17:58:42.914Z,0.70
2023-06-28T18:01:12.329Z,0.80
2023-06-28T18:03:42.031Z,0.65
2023-06-28T18:06:11.238Z,0.55
2023-06-28T18:08:40.395Z,0.70
2023-06-28T18:11:08.918Z,0.65
2023-06-28T18:13:39.008Z,0.50
2023-06-28T18:16:09.609Z,0.68
2023-06-28T18:18:39.999Z,0.52
2023-06-28T18:21:09.367Z,0.50
2023-06-28T18:23:38.347Z,0.65
2023-06-28T18:26:07.958Z,0.60
2023-06-28T18:28:37.747Z,0.60
2023-06-28T18:31:06.147Z,0.50
2023-06-28T18:33:37.306Z,0.55
2023-06-28T18:36:06.814Z,0.57
2023-06-28T18:38:37.601Z,0.60
2023-06-28T18:41:06.605Z,0.65
2023-06-28T18:43:35.466Z,0.80
2023-06-28T18:46:05.618Z,0.73
2023-06-28T18:48:36.376Z,0.68
2023-06-28T18:51:06.811Z,0.57
2023-06-28T18:53:36.490Z,0.60
2023-06-28T18:56:08.721Z,0.45
2023-06-28T18:58:39.005Z,0.45
2023-06-28T19:01:08.857Z,0.50
2023-06-28T19:03:40.368Z,0.60
2023-06-28T19:06:08.982Z,0.50
2023-06-28T19:08:38.213Z,0.70
2023-06-28T19:11:07.615Z,0.77
2023-06-28T19:13:37.440Z,0.60
2023-06-28T19:16:06.760Z,0.60
2023-06-28T19:18:36.383Z,0.70
2023-06-28T19:21:07.611Z,0.60
2023-06-28T19:23:37.955Z,0.50
2023-06-28T19:33:31.830Z,0.70
2023-06-28T19:36:00.239Z,0.70
2023-06-28T22:34:33.202Z,0.60
2023-06-28T22:37:02.025Z,0.60
2023-06-28T22:39:30.397Z,0.60
2023-06-28T22:51:54.459Z,0.60
2023-06-28T22:54:28.177Z,0.55
2023-06-28T23:04:21.798Z,0.60
